sensor_id;sensor_type;location;lat;lon;timestamp;temperature;humidity
75466;HTU21D;64049;46.290;44.240;2023-09-12T00:01:28;15.06;52.59
75466;HTU21D;64049;46.290;44.240;2023-09-12T00:03:58;15.07;52.58
75466;HTU21D;64049;46.290;44.240;2023-09-12T00:06:24;15.09;52.63
75466;HTU21D;64049;46.290;44.240;2023-09-12T00:08:51;15.11;52.62
75466;HTU21D;64049;46.290;44.240;2023-09-12T00:11:18;15.11;52.59
75466;HTU21D;64049;46.290;44.240;2023-09-12T00:13:44;15.08;52.61
75466;HTU21D;64049;46.290;44.240;2023-09-12T00:16:10;15.03;52.65
75466;HTU21D;64049;46.290;44.240;2023-09-12T00:18:39;15.01;52.70
75466;HTU21D;64049;46.290;44.240;2023-09-12T00:21:06;14.97;52.64
75466;HTU21D;64049;46.290;44.240;2023-09-12T00:23:31;14.91;52.63
75466;HTU21D;64049;46.290;44.240;2023-09-12T00:25:58;14.86;52.59
75466;HTU21D;64049;46.290;44.240;2023-09-12T00:28:23;14.81;52.64
75466;HTU21D;64049;46.290;44.240;2023-09-12T00:31:00;14.77;52.65
75466;HTU21D;64049;46.290;44.240;2023-09-12T00:33:26;14.73;52.53
75466;HTU21D;64049;46.290;44.240;2023-09-12T00:35:52;14.72;52.52
75466;HTU21D;64049;46.290;44.240;2023-09-12T00:38:18;14.68;52.49
75466;HTU21D;64049;46.290;44.240;2023-09-12T00:40:44;14.63;52.71
75466;HTU21D;64049;46.290;44.240;2023-09-12T00:43:10;14.64;52.85
75466;HTU21D;64049;46.290;44.240;2023-09-12T00:45:36;14.64;52.85
75466;HTU21D;64049;46.290;44.240;2023-09-12T00:48:04;14.64;52.89
75466;HTU21D;64049;46.290;44.240;2023-09-12T00:50:32;14.64;52.87
75466;HTU21D;64049;46.290;44.240;2023-09-12T00:52:59;14.66;52.97
75466;HTU21D;64049;46.290;44.240;2023-09-12T00:55:28;14.67;52.92
75466;HTU21D;64049;46.290;44.240;2023-09-12T00:57:54;14.67;52.77
75466;HTU21D;64049;46.290;44.240;2023-09-12T01:00:20;14.63;52.93
75466;HTU21D;64049;46.290;44.240;2023-09-12T01:02:46;14.59;53.23
75466;HTU21D;64049;46.290;44.240;2023-09-12T01:05:16;14.59;53.55
75466;HTU21D;64049;46.290;44.240;2023-09-12T01:07:43;14.68;54.12
75466;HTU21D;64049;46.290;44.240;2023-09-12T01:10:15;14.77;54.60
75466;HTU21D;64049;46.290;44.240;2023-09-12T01:12:41;14.93;54.79
75466;HTU21D;64049;46.290;44.240;2023-09-12T01:15:07;15.13;54.87
75466;HTU21D;64049;46.290;44.240;2023-09-12T01:17:41;14.89;56.83
75466;HTU21D;64049;46.290;44.240;2023-09-12T01:20:10;14.09;62.05
75466;HTU21D;64049;46.290;44.240;2023-09-12T01:28:09;13.11;67.50
75466;HTU21D;64049;46.290;44.240;2023-09-12T01:30:39;12.95;69.06
75466;HTU21D;64049;46.290;44.240;2023-09-12T01:33:05;12.89;70.97
75466;HTU21D;64049;46.290;44.240;2023-09-12T01:35:31;12.87;72.09
75466;HTU21D;64049;46.290;44.240;2023-09-12T01:37:58;12.90;72.77
75466;HTU21D;64049;46.290;44.240;2023-09-12T01:40:51;12.94;73.60
75466;HTU21D;64049;46.290;44.240;2023-09-12T01:43:19;12.95;74.20
75466;HTU21D;64049;46.290;44.240;2023-09-12T01:45:48;12.94;73.56
75466;HTU21D;64049;46.290;44.240;2023-09-12T01:48:19;12.95;73.20
75466;HTU21D;64049;46.290;44.240;2023-09-12T01:50:46;12.95;72.29
75466;HTU21D;64049;46.290;44.240;2023-09-12T01:53:14;12.97;71.70
75466;HTU21D;64049;46.290;44.240;2023-09-12T01:55:43;12.99;71.28
75466;HTU21D;64049;46.290;44.240;2023-09-12T01:58:11;12.97;70.90
75466;HTU21D;64049;46.290;44.240;2023-09-12T02:00:38;13.00;70.66
75466;HTU21D;64049;46.290;44.240;2023-09-12T02:03:05;12.97;70.53
75466;HTU21D;64049;46.290;44.240;2023-09-12T02:05:31;13.02;70.36
75466;HTU21D;64049;46.290;44.240;2023-09-12T02:08:00;13.02;70.22
75466;HTU21D;64049;46.290;44.240;2023-09-12T02:10:27;13.02;70.26
75466;HTU21D;64049;46.290;44.240;2023-09-12T02:12:53;13.03;70.23
75466;HTU21D;64049;46.290;44.240;2023-09-12T02:15:19;13.08;69.99
75466;HTU21D;64049;46.290;44.240;2023-09-12T02:17:45;13.10;69.74
75466;HTU21D;64049;46.290;44.240;2023-09-12T02:20:11;13.11;69.65
75466;HTU21D;64049;46.290;44.240;2023-09-12T02:22:37;13.15;69.58
75466;HTU21D;64049;46.290;44.240;2023-09-12T02:25:04;13.17;69.48
75466;HTU21D;64049;46.290;44.240;2023-09-12T02:27:30;13.19;69.43
75466;HTU21D;64049;46.290;44.240;2023-09-12T02:29:57;13.20;69.62
75466;HTU21D;64049;46.290;44.240;2023-09-12T02:32:23;13.23;69.45
75466;HTU21D;64049;46.290;44.240;2023-09-12T02:34:49;13.26;69.25
75466;HTU21D;64049;46.290;44.240;2023-09-12T02:37:15;13.27;69.13
75466;HTU21D;64049;46.290;44.240;2023-09-12T02:39:41;13.30;69.03
75466;HTU21D;64049;46.290;44.240;2023-09-12T02:42:07;13.32;69.07
75466;HTU21D;64049;46.290;44.240;2023-09-12T02:44:33;13.30;69.16
75466;HTU21D;64049;46.290;44.240;2023-09-12T02:46:59;13.27;69.24
75466;HTU21D;64049;46.290;44.240;2023-09-12T02:49:31;13.30;69.54
75466;HTU21D;64049;46.290;44.240;2023-09-12T02:51:56;13.33;69.47
75466;HTU21D;64049;46.290;44.240;2023-09-12T02:54:25;13.33;69.52
75466;HTU21D;64049;46.290;44.240;2023-09-12T02:56:54;13.35;69.55
75466;HTU21D;64049;46.290;44.240;2023-09-12T02:59:22;13.37;69.55
75466;HTU21D;64049;46.290;44.240;2023-09-12T03:01:48;13.37;69.63
75466;HTU21D;64049;46.290;44.240;2023-09-12T03:04:13;13.36;69.78
75466;HTU21D;64049;46.290;44.240;2023-09-12T03:06:39;13.37;69.65
75466;HTU21D;64049;46.290;44.240;2023-09-12T03:09:05;13.38;69.52
75466;HTU21D;64049;46.290;44.240;2023-09-12T03:11:44;13.37;69.40
75466;HTU21D;64049;46.290;44.240;2023-09-12T03:14:10;13.36;69.15
75466;HTU21D;64049;46.290;44.240;2023-09-12T03:16:36;13.35;69.08
75466;HTU21D;64049;46.290;44.240;2023-09-12T03:19:04;13.33;69.04
75466;HTU21D;64049;46.290;44.240;2023-09-12T03:21:30;13.33;69.12
75466;HTU21D;64049;46.290;44.240;2023-09-12T03:23:56;13.34;69.16
75466;HTU21D;64049;46.290;44.240;2023-09-12T03:26:22;13.39;69.29
75466;HTU21D;64049;46.290;44.240;2023-09-12T03:28:51;13.41;69.36
75466;HTU21D;64049;46.290;44.240;2023-09-12T03:31:18;13.39;69.39
75466;HTU21D;64049;46.290;44.240;2023-09-12T03:33:44;13.39;69.38
75466;HTU21D;64049;46.290;44.240;2023-09-12T03:36:16;13.37;69.42
75466;HTU21D;64049;46.290;44.240;2023-09-12T03:38:43;13.32;69.44
75466;HTU21D;64049;46.290;44.240;2023-09-12T03:41:09;13.29;69.43
75466;HTU21D;64049;46.290;44.240;2023-09-12T03:43:35;13.30;69.40
75466;HTU21D;64049;46.290;44.240;2023-09-12T03:46:03;13.32;69.16
75466;HTU21D;64049;46.290;44.240;2023-09-12T03:48:30;13.30;68.88
75466;HTU21D;64049;46.290;44.240;2023-09-12T03:50:58;13.24;69.03
75466;HTU21D;64049;46.290;44.240;2023-09-12T03:53:24;13.20;69.21
75466;HTU21D;64049;46.290;44.240;2023-09-12T03:55:52;13.18;69.20
75466;HTU21D;64049;46.290;44.240;2023-09-12T03:58:18;13.17;69.35
75466;HTU21D;64049;46.290;44.240;2023-09-12T04:00:44;13.14;69.52
75466;HTU21D;64049;46.290;44.240;2023-09-12T04:03:10;13.16;69.68
75466;HTU21D;64049;46.290;44.240;2023-09-12T04:05:36;13.21;69.61
75466;HTU21D;64049;46.290;44.240;2023-09-12T04:08:02;13.26;69.32
75466;HTU21D;64049;46.290;44.240;2023-09-12T04:10:28;13.33;69.32
75466;HTU21D;64049;46.290;44.240;2023-09-12T04:12:54;13.40;69.26
75466;HTU21D;64049;46.290;44.240;2023-09-12T04:15:20;13.43;69.15
75466;HTU21D;64049;46.290;44.240;2023-09-12T04:17:45;13.48;69.11
75466;HTU21D;64049;46.290;44.240;2023-09-12T04:20:11;13.54;69.08
75466;HTU21D;64049;46.290;44.240;2023-09-12T04:22:42;13.74;68.91
75466;HTU21D;64049;46.290;44.240;2023-09-12T04:25:08;13.96;68.68
75466;HTU21D;64049;46.290;44.240;2023-09-12T04:27:34;14.19;68.41
75466;HTU21D;64049;46.290;44.240;2023-09-12T04:30:00;14.42;68.41
75466;HTU21D;64049;46.290;44.240;2023-09-12T04:32:26;14.66;68.10
75466;HTU21D;64049;46.290;44.240;2023-09-12T04:34:52;14.91;67.76
75466;HTU21D;64049;46.290;44.240;2023-09-12T04:37:18;15.12;67.42
75466;HTU21D;64049;46.290;44.240;2023-09-12T04:39:45;15.30;67.24
75466;HTU21D;64049;46.290;44.240;2023-09-12T04:42:11;15.51;67.03
75466;HTU21D;64049;46.290;44.240;2023-09-12T04:44:39;15.68;66.72
75466;HTU21D;64049;46.290;44.240;2023-09-12T04:47:05;15.73;66.42
75466;HTU21D;64049;46.290;44.240;2023-09-12T04:49:31;15.74;66.15
75466;HTU21D;64049;46.290;44.240;2023-09-12T04:51:57;15.86;66.00
75466;HTU21D;64049;46.290;44.240;2023-09-12T04:54:23;16.05;65.59
75466;HTU21D;64049;46.290;44.240;2023-09-12T04:56:49;16.25;65.16
75466;HTU21D;64049;46.290;44.240;2023-09-12T04:59:20;16.39;64.72
75466;HTU21D;64049;46.290;44.240;2023-09-12T05:01:45;16.51;64.11
75466;HTU21D;64049;46.290;44.240;2023-09-12T05:04:12;16.67;63.80
75466;HTU21D;64049;46.290;44.240;2023-09-12T05:06:37;16.80;62.82
75466;HTU21D;64049;46.290;44.240;2023-09-12T05:09:04;16.91;62.30
75466;HTU21D;64049;46.290;44.240;2023-09-12T05:11:31;17.04;61.68
75466;HTU21D;64049;46.290;44.240;2023-09-12T05:13:57;17.16;61.12
75466;HTU21D;64049;46.290;44.240;2023-09-12T05:16:23;17.28;60.40
75466;HTU21D;64049;46.290;44.240;2023-09-12T05:18:49;17.39;60.47
75466;HTU21D;64049;46.290;44.240;2023-09-12T05:21:15;17.52;60.01
75466;HTU21D;64049;46.290;44.240;2023-09-12T05:23:41;17.64;59.80
75466;HTU21D;64049;46.290;44.240;2023-09-12T05:26:07;17.74;59.15
75466;HTU21D;64049;46.290;44.240;2023-09-12T05:28:34;17.84;59.12
75466;HTU21D;64049;46.290;44.240;2023-09-12T05:31:00;17.90;58.45
75466;HTU21D;64049;46.290;44.240;2023-09-12T05:33:28;17.98;58.45
75466;HTU21D;64049;46.290;44.240;2023-09-12T05:35:54;18.10;58.67
75466;HTU21D;64049;46.290;44.240;2023-09-12T05:38:19;18.25;58.92
75466;HTU21D;64049;46.290;44.240;2023-09-12T05:40:46;18.42;58.82
75466;HTU21D;64049;46.290;44.240;2023-09-12T05:43:12;18.54;58.54
75466;HTU21D;64049;46.290;44.240;2023-09-12T05:45:38;18.67;57.90
75466;HTU21D;64049;46.290;44.240;2023-09-12T05:48:04;18.78;57.73
75466;HTU21D;64049;46.290;44.240;2023-09-12T05:50:31;18.95;57.66
75466;HTU21D;64049;46.290;44.240;2023-09-12T05:52:57;19.15;57.57
75466;HTU21D;64049;46.290;44.240;2023-09-12T05:55:23;19.36;57.26
75466;HTU21D;64049;46.290;44.240;2023-09-12T05:57:50;19.53;56.52
75466;HTU21D;64049;46.290;44.240;2023-09-12T06:00:20;19.57;56.13
75466;HTU21D;64049;46.290;44.240;2023-09-12T06:02:48;19.74;55.10
75466;HTU21D;64049;46.290;44.240;2023-09-12T06:05:15;19.87;54.53
75466;HTU21D;64049;46.290;44.240;2023-09-12T06:07:41;20.03;53.68
75466;HTU21D;64049;46.290;44.240;2023-09-12T06:10:08;20.22;53.49
75466;HTU21D;64049;46.290;44.240;2023-09-12T06:12:34;20.59;52.97
75466;HTU21D;64049;46.290;44.240;2023-09-12T06:15:01;21.04;52.87
75466;HTU21D;64049;46.290;44.240;2023-09-12T06:17:27;21.40;52.02
75466;HTU21D;64049;46.290;44.240;2023-09-12T06:19:54;21.61;51.35
75466;HTU21D;64049;46.290;44.240;2023-09-12T06:22:20;21.67;51.30
75466;HTU21D;64049;46.290;44.240;2023-09-12T06:24:51;21.67;50.05
75466;HTU21D;64049;46.290;44.240;2023-09-12T06:27:17;21.54;50.14
75466;HTU21D;64049;46.290;44.240;2023-09-12T06:29:45;21.50;50.21
75466;HTU21D;64049;46.290;44.240;2023-09-12T06:32:14;21.31;51.07
75466;HTU21D;64049;46.290;44.240;2023-09-12T06:34:41;21.11;50.99
75466;HTU21D;64049;46.290;44.240;2023-09-12T06:37:07;20.80;50.56
75466;HTU21D;64049;46.290;44.240;2023-09-12T06:39:33;20.58;50.98
75466;HTU21D;64049;46.290;44.240;2023-09-12T06:41:59;20.40;50.44
75466;HTU21D;64049;46.290;44.240;2023-09-12T06:44:25;20.26;50.45
75466;HTU21D;64049;46.290;44.240;2023-09-12T06:46:51;20.20;50.53
75466;HTU21D;64049;46.290;44.240;2023-09-12T06:49:16;20.44;50.05
75466;HTU21D;64049;46.290;44.240;2023-09-12T06:51:42;20.81;49.25
75466;HTU21D;64049;46.290;44.240;2023-09-12T06:54:08;21.04;48.17
75466;HTU21D;64049;46.290;44.240;2023-09-12T06:56:34;21.21;48.24
75466;HTU21D;64049;46.290;44.240;2023-09-12T06:59:04;21.51;46.76
75466;HTU21D;64049;46.290;44.240;2023-09-12T07:01:30;21.40;45.28
75466;HTU21D;64049;46.290;44.240;2023-09-12T07:03:56;21.53;45.45
75466;HTU21D;64049;46.290;44.240;2023-09-12T07:06:22;21.64;44.47
75466;HTU21D;64049;46.290;44.240;2023-09-12T07:08:51;21.72;44.42
75466;HTU21D;64049;46.290;44.240;2023-09-12T07:11:17;21.78;44.09
75466;HTU21D;64049;46.290;44.240;2023-09-12T07:13:45;21.79;43.77
75466;HTU21D;64049;46.290;44.240;2023-09-12T07:16:11;21.91;43.59
75466;HTU21D;64049;46.290;44.240;2023-09-12T07:18:37;21.94;42.69
75466;HTU21D;64049;46.290;44.240;2023-09-12T07:21:06;21.91;42.87
75466;HTU21D;64049;46.290;44.240;2023-09-12T07:23:32;21.81;42.32
75466;HTU21D;64049;46.290;44.240;2023-09-12T07:26:01;21.66;42.21
75466;HTU21D;64049;46.290;44.240;2023-09-12T07:28:33;21.57;42.56
75466;HTU21D;64049;46.290;44.240;2023-09-12T07:31:03;21.45;42.61
75466;HTU21D;64049;46.290;44.240;2023-09-12T07:33:29;21.40;42.58
75466;HTU21D;64049;46.290;44.240;2023-09-12T07:35:55;21.37;43.03
75466;HTU21D;64049;46.290;44.240;2023-09-12T07:38:21;21.39;43.19
75466;HTU21D;64049;46.290;44.240;2023-09-12T07:40:48;21.37;43.43
75466;HTU21D;64049;46.290;44.240;2023-09-12T07:43:14;21.36;43.61
75466;HTU21D;64049;46.290;44.240;2023-09-12T07:45:40;21.33;43.60
75466;HTU21D;64049;46.290;44.240;2023-09-12T07:48:08;21.28;42.96
75466;HTU21D;64049;46.290;44.240;2023-09-12T07:50:36;21.48;43.23
75466;HTU21D;64049;46.290;44.240;2023-09-12T07:53:07;21.81;42.99
75466;HTU21D;64049;46.290;44.240;2023-09-12T07:55:39;22.16;43.32
75466;HTU21D;64049;46.290;44.240;2023-09-12T07:58:12;22.57;42.71
75466;HTU21D;64049;46.290;44.240;2023-09-12T08:00:39;23.13;41.94
75466;HTU21D;64049;46.290;44.240;2023-09-12T08:03:05;23.43;41.28
75466;HTU21D;64049;46.290;44.240;2023-09-12T08:05:31;23.67;41.46
75466;HTU21D;64049;46.290;44.240;2023-09-12T08:07:57;24.14;40.77
75466;HTU21D;64049;46.290;44.240;2023-09-12T08:10:23;24.55;39.91
75466;HTU21D;64049;46.290;44.240;2023-09-12T08:12:49;24.64;38.17
75466;HTU21D;64049;46.290;44.240;2023-09-12T08:15:15;24.70;38.03
75466;HTU21D;64049;46.290;44.240;2023-09-12T08:17:41;24.66;37.26
75466;HTU21D;64049;46.290;44.240;2023-09-12T08:20:08;24.18;36.69
75466;HTU21D;64049;46.290;44.240;2023-09-12T08:22:37;23.77;37.64
75466;HTU21D;64049;46.290;44.240;2023-09-12T08:25:04;23.71;36.93
75466;HTU21D;64049;46.290;44.240;2023-09-12T08:27:30;23.77;36.85
75466;HTU21D;64049;46.290;44.240;2023-09-12T08:29:56;23.86;36.83
75466;HTU21D;64049;46.290;44.240;2023-09-12T08:32:22;23.82;36.87
75466;HTU21D;64049;46.290;44.240;2023-09-12T08:34:48;23.81;36.59
75466;HTU21D;64049;46.290;44.240;2023-09-12T08:37:14;23.98;36.41
75466;HTU21D;64049;46.290;44.240;2023-09-12T08:39:43;24.06;35.24
75466;HTU21D;64049;46.290;44.240;2023-09-12T08:42:16;24.28;36.38
75466;HTU21D;64049;46.290;44.240;2023-09-12T08:44:42;24.10;36.14
75466;HTU21D;64049;46.290;44.240;2023-09-12T08:47:09;23.59;36.18
75466;HTU21D;64049;46.290;44.240;2023-09-12T08:49:37;23.09;35.50
75466;HTU21D;64049;46.290;44.240;2023-09-12T08:52:04;22.61;35.73
75466;HTU21D;64049;46.290;44.240;2023-09-12T08:54:31;22.35;35.72
75466;HTU21D;64049;46.290;44.240;2023-09-12T08:56:58;22.13;35.70
75466;HTU21D;64049;46.290;44.240;2023-09-12T08:59:24;21.92;36.26
75466;HTU21D;64049;46.290;44.240;2023-09-12T09:01:51;21.74;36.56
75466;HTU21D;64049;46.290;44.240;2023-09-12T09:04:18;21.59;37.40
75466;HTU21D;64049;46.290;44.240;2023-09-12T09:06:46;21.30;39.55
75466;HTU21D;64049;46.290;44.240;2023-09-12T09:09:13;20.59;42.03
75466;HTU21D;64049;46.290;44.240;2023-09-12T09:11:39;20.17;43.96
75466;HTU21D;64049;46.290;44.240;2023-09-12T09:14:05;19.65;45.35
75466;HTU21D;64049;46.290;44.240;2023-09-12T09:16:31;19.33;45.64
75466;HTU21D;64049;46.290;44.240;2023-09-12T09:19:03;19.47;44.61
75466;HTU21D;64049;46.290;44.240;2023-09-12T09:21:36;19.72;43.18
75466;HTU21D;64049;46.290;44.240;2023-09-12T09:24:07;20.06;42.38
75466;HTU21D;64049;46.290;44.240;2023-09-12T09:26:45;20.44;41.04
75466;HTU21D;64049;46.290;44.240;2023-09-12T09:29:17;20.74;39.72
75466;HTU21D;64049;46.290;44.240;2023-09-12T09:31:45;20.90;39.49
75466;HTU21D;64049;46.290;44.240;2023-09-12T09:34:16;21.07;39.04
75466;HTU21D;64049;46.290;44.240;2023-09-12T09:36:51;21.44;37.98
75466;HTU21D;64049;46.290;44.240;2023-09-12T09:39:19;21.60;37.58
75466;HTU21D;64049;46.290;44.240;2023-09-12T09:41:48;21.69;36.91
75466;HTU21D;64049;46.290;44.240;2023-09-12T09:44:14;21.85;36.76
75466;HTU21D;64049;46.290;44.240;2023-09-12T09:46:45;21.91;36.31
75466;HTU21D;64049;46.290;44.240;2023-09-12T09:49:14;21.97;36.37
75466;HTU21D;64049;46.290;44.240;2023-09-12T09:51:41;22.03;36.39
75466;HTU21D;64049;46.290;44.240;2023-09-12T09:54:08;22.20;36.18
75466;HTU21D;64049;46.290;44.240;2023-09-12T09:56:53;22.60;35.60
75466;HTU21D;64049;46.290;44.240;2023-09-12T09:59:26;23.00;35.45
75466;HTU21D;64049;46.290;44.240;2023-09-12T10:01:57;23.30;34.74
75466;HTU21D;64049;46.290;44.240;2023-09-12T10:04:24;23.67;34.14
75466;HTU21D;64049;46.290;44.240;2023-09-12T10:06:55;24.19;33.58
75466;HTU21D;64049;46.290;44.240;2023-09-12T10:09:22;24.56;32.60
75466;HTU21D;64049;46.290;44.240;2023-09-12T10:11:48;25.15;33.15
75466;HTU21D;64049;46.290;44.240;2023-09-12T10:14:19;25.29;31.58
75466;HTU21D;64049;46.290;44.240;2023-09-12T10:16:47;25.20;31.38
75466;HTU21D;64049;46.290;44.240;2023-09-12T10:19:32;24.75;31.06
75466;HTU21D;64049;46.290;44.240;2023-09-12T10:24:42;24.21;32.58
75466;HTU21D;64049;46.290;44.240;2023-09-12T10:27:09;24.11;33.71
75466;HTU21D;64049;46.290;44.240;2023-09-12T10:29:36;24.00;34.46
75466;HTU21D;64049;46.290;44.240;2023-09-12T10:32:02;23.85;34.41
75466;HTU21D;64049;46.290;44.240;2023-09-12T10:34:30;23.66;34.99
75466;HTU21D;64049;46.290;44.240;2023-09-12T10:36:58;23.56;35.69
75466;HTU21D;64049;46.290;44.240;2023-09-12T10:39:27;23.35;34.16
75466;HTU21D;64049;46.290;44.240;2023-09-12T10:41:54;23.18;34.10
75466;HTU21D;64049;46.290;44.240;2023-09-12T10:44:20;23.15;34.76
75466;HTU21D;64049;46.290;44.240;2023-09-12T10:46:47;23.16;35.21
75466;HTU21D;64049;46.290;44.240;2023-09-12T10:49:15;23.20;35.19
75466;HTU21D;64049;46.290;44.240;2023-09-12T10:51:42;23.52;35.08
75466;HTU21D;64049;46.290;44.240;2023-09-12T10:54:09;24.20;34.32
75466;HTU21D;64049;46.290;44.240;2023-09-12T10:56:37;24.88;32.89
75466;HTU21D;64049;46.290;44.240;2023-09-12T11:01:30;23.92;32.20
75466;HTU21D;64049;46.290;44.240;2023-09-12T11:03:57;23.84;32.95
75466;HTU21D;64049;46.290;44.240;2023-09-12T11:06:28;23.95;33.09
75466;HTU21D;64049;46.290;44.240;2023-09-12T11:11:42;25.34;31.53
75466;HTU21D;64049;46.290;44.240;2023-09-12T11:14:08;26.06;31.06
75466;HTU21D;64049;46.290;44.240;2023-09-12T11:16:34;26.69;30.66
75466;HTU21D;64049;46.290;44.240;2023-09-12T11:19:21;27.01;29.32
75466;HTU21D;64049;46.290;44.240;2023-09-12T11:21:53;26.45;29.72
75466;HTU21D;64049;46.290;44.240;2023-09-12T11:24:20;25.84;30.84
75466;HTU21D;64049;46.290;44.240;2023-09-12T11:27:01;25.24;29.47
75466;HTU21D;64049;46.290;44.240;2023-09-12T11:29:35;24.50;31.22
75466;HTU21D;64049;46.290;44.240;2023-09-12T11:32:02;24.43;32.01
75466;HTU21D;64049;46.290;44.240;2023-09-12T11:34:35;24.40;31.45
75466;HTU21D;64049;46.290;44.240;2023-09-12T11:37:01;24.29;31.03
75466;HTU21D;64049;46.290;44.240;2023-09-12T11:39:30;24.18;30.99
75466;HTU21D;64049;46.290;44.240;2023-09-12T11:41:57;24.06;31.21
75466;HTU21D;64049;46.290;44.240;2023-09-12T11:44:24;23.99;30.95
75466;HTU21D;64049;46.290;44.240;2023-09-12T11:46:51;23.83;30.52
75466;HTU21D;64049;46.290;44.240;2023-09-12T11:49:18;23.70;30.64
75466;HTU21D;64049;46.290;44.240;2023-09-12T11:51:49;23.59;29.96
75466;HTU21D;64049;46.290;44.240;2023-09-12T11:54:19;23.54;29.80
75466;HTU21D;64049;46.290;44.240;2023-09-12T11:56:47;23.67;30.21
75466;HTU21D;64049;46.290;44.240;2023-09-12T11:59:14;24.00;30.22
75466;HTU21D;64049;46.290;44.240;2023-09-12T12:01:40;24.16;30.51
75466;HTU21D;64049;46.290;44.240;2023-09-12T12:04:06;24.28;30.48
75466;HTU21D;64049;46.290;44.240;2023-09-12T12:06:32;24.63;29.93
75466;HTU21D;64049;46.290;44.240;2023-09-12T12:09:01;24.41;30.58
75466;HTU21D;64049;46.290;44.240;2023-09-12T12:11:28;24.15;30.98
75466;HTU21D;64049;46.290;44.240;2023-09-12T12:13:54;23.91;31.11
75466;HTU21D;64049;46.290;44.240;2023-09-12T12:16:19;23.82;31.43
75466;HTU21D;64049;46.290;44.240;2023-09-12T12:18:46;23.86;31.23
75466;HTU21D;64049;46.290;44.240;2023-09-12T12:21:12;23.79;30.68
75466;HTU21D;64049;46.290;44.240;2023-09-12T12:23:38;23.58;29.91
75466;HTU21D;64049;46.290;44.240;2023-09-12T12:26:10;23.45;30.46
75466;HTU21D;64049;46.290;44.240;2023-09-12T12:28:36;23.56;31.00
75466;HTU21D;64049;46.290;44.240;2023-09-12T12:31:02;23.66;30.76
75466;HTU21D;64049;46.290;44.240;2023-09-12T12:33:28;23.60;30.15
75466;HTU21D;64049;46.290;44.240;2023-09-12T12:36:04;23.50;30.03
75466;HTU21D;64049;46.290;44.240;2023-09-12T12:38:37;23.40;29.97
75466;HTU21D;64049;46.290;44.240;2023-09-12T12:41:04;23.38;30.03
75466;HTU21D;64049;46.290;44.240;2023-09-12T12:43:35;23.38;30.21
75466;HTU21D;64049;46.290;44.240;2023-09-12T12:46:01;23.36;30.59
75466;HTU21D;64049;46.290;44.240;2023-09-12T12:50:56;23.28;31.15
75466;HTU21D;64049;46.290;44.240;2023-09-12T12:53:42;23.26;31.40
75466;HTU21D;64049;46.290;44.240;2023-09-12T12:56:08;23.24;31.38
75466;HTU21D;64049;46.290;44.240;2023-09-12T12:58:34;23.21;30.80
75466;HTU21D;64049;46.290;44.240;2023-09-12T13:01:00;23.09;30.90
75466;HTU21D;64049;46.290;44.240;2023-09-12T13:03:26;23.05;31.40
75466;HTU21D;64049;46.290;44.240;2023-09-12T13:05:52;23.09;31.45
75466;HTU21D;64049;46.290;44.240;2023-09-12T13:08:18;23.12;31.67
75466;HTU21D;64049;46.290;44.240;2023-09-12T13:10:44;23.16;31.73
75466;HTU21D;64049;46.290;44.240;2023-09-12T13:13:10;23.15;31.71
75466;HTU21D;64049;46.290;44.240;2023-09-12T13:15:36;23.17;31.83
75466;HTU21D;64049;46.290;44.240;2023-09-12T13:18:02;23.37;31.83
75466;HTU21D;64049;46.290;44.240;2023-09-12T13:20:29;23.54;31.88
75466;HTU21D;64049;46.290;44.240;2023-09-12T13:22:55;23.72;31.77
75466;HTU21D;64049;46.290;44.240;2023-09-12T13:25:21;23.67;31.80
75466;HTU21D;64049;46.290;44.240;2023-09-12T13:27:49;23.60;31.80
75466;HTU21D;64049;46.290;44.240;2023-09-12T13:30:15;23.53;31.80
75466;HTU21D;64049;46.290;44.240;2023-09-12T13:32:41;23.87;31.64
75466;HTU21D;64049;46.290;44.240;2023-09-12T13:35:06;23.92;31.77
75466;HTU21D;64049;46.290;44.240;2023-09-12T13:37:33;23.97;31.57
75466;HTU21D;64049;46.290;44.240;2023-09-12T13:39:59;24.30;31.04
75466;HTU21D;64049;46.290;44.240;2023-09-12T13:42:25;24.25;30.86
75466;HTU21D;64049;46.290;44.240;2023-09-12T13:44:56;23.91;31.07
75466;HTU21D;64049;46.290;44.240;2023-09-12T13:47:22;23.64;31.41
75466;HTU21D;64049;46.290;44.240;2023-09-12T13:49:50;23.41;31.48
75466;HTU21D;64049;46.290;44.240;2023-09-12T13:52:21;23.26;31.51
75466;HTU21D;64049;46.290;44.240;2023-09-12T13:54:47;23.24;31.77
75466;HTU21D;64049;46.290;44.240;2023-09-12T13:57:13;23.44;31.97
75466;HTU21D;64049;46.290;44.240;2023-09-12T13:59:39;23.94;31.48
75466;HTU21D;64049;46.290;44.240;2023-09-12T14:02:05;24.21;30.72
75466;HTU21D;64049;46.290;44.240;2023-09-12T14:04:31;24.62;30.61
75466;HTU21D;64049;46.290;44.240;2023-09-12T14:06:57;25.54;29.47
75466;HTU21D;64049;46.290;44.240;2023-09-12T14:09:22;25.59;29.56
75466;HTU21D;64049;46.290;44.240;2023-09-12T14:11:48;24.98;30.00
75466;HTU21D;64049;46.290;44.240;2023-09-12T14:14:14;24.42;30.64
75466;HTU21D;64049;46.290;44.240;2023-09-12T14:16:43;23.96;31.09
75466;HTU21D;64049;46.290;44.240;2023-09-12T14:19:09;23.61;31.25
75466;HTU21D;64049;46.290;44.240;2023-09-12T14:21:35;23.28;31.36
75466;HTU21D;64049;46.290;44.240;2023-09-12T14:24:02;22.98;31.67
75466;HTU21D;64049;46.290;44.240;2023-09-12T14:26:28;22.72;31.70
75466;HTU21D;64049;46.290;44.240;2023-09-12T14:28:54;22.55;31.47
75466;HTU21D;64049;46.290;44.240;2023-09-12T14:31:22;22.35;30.43
75466;HTU21D;64049;46.290;44.240;2023-09-12T14:33:49;22.18;30.41
75466;HTU21D;64049;46.290;44.240;2023-09-12T14:36:15;22.05;30.38
75466;HTU21D;64049;46.290;44.240;2023-09-12T14:38:41;21.91;30.17
75466;HTU21D;64049;46.290;44.240;2023-09-12T14:41:09;21.79;30.16
75466;HTU21D;64049;46.290;44.240;2023-09-12T14:43:35;21.70;29.72
75466;HTU21D;64049;46.290;44.240;2023-09-12T14:46:01;21.78;29.89
75466;HTU21D;64049;46.290;44.240;2023-09-12T14:48:29;22.03;29.24
75466;HTU21D;64049;46.290;44.240;2023-09-12T14:50:59;21.98;29.18
75466;HTU21D;64049;46.290;44.240;2023-09-12T14:53:26;21.73;29.31
75466;HTU21D;64049;46.290;44.240;2023-09-12T14:55:53;21.50;29.71
75466;HTU21D;64049;46.290;44.240;2023-09-12T14:58:19;21.33;29.87
75466;HTU21D;64049;46.290;44.240;2023-09-12T15:00:48;21.22;30.08
75466;HTU21D;64049;46.290;44.240;2023-09-12T15:03:14;21.13;30.22
75466;HTU21D;64049;46.290;44.240;2023-09-12T15:05:39;21.03;30.35
75466;HTU21D;64049;46.290;44.240;2023-09-12T15:08:05;20.92;30.41
75466;HTU21D;64049;46.290;44.240;2023-09-12T15:10:32;20.86;30.32
75466;HTU21D;64049;46.290;44.240;2023-09-12T15:12:58;20.78;30.54
75466;HTU21D;64049;46.290;44.240;2023-09-12T15:15:24;20.66;30.77
75466;HTU21D;64049;46.290;44.240;2023-09-12T15:17:49;20.53;31.08
75466;HTU21D;64049;46.290;44.240;2023-09-12T15:20:16;20.41;31.34